sensor_id;sensor_type;location;lat;lon;timestamp;temperature;humidity
75170;SHT31;63749;49.186;9.222;2023-09-12T00:00:53;17.20;87.46
75170;SHT31;63749;49.186;9.222;2023-09-12T00:03:20;17.26;87.75
75170;SHT31;63749;49.186;9.222;2023-09-12T00:05:55;17.21;87.57
75170;SHT31;63749;49.186;9.222;2023-09-12T00:08:21;17.23;87.71
75170;SHT31;63749;49.186;9.222;2023-09-12T00:11:06;17.24;87.50
75170;SHT31;63749;49.186;9.222;2023-09-12T00:13:35;17.20;87.93
75170;SHT31;63749;49.186;9.222;2023-09-12T00:16:01;17.17;87.96
75170;SHT31;63749;49.186;9.222;2023-09-12T00:18:26;17.21;88.80
75170;SHT31;63749;49.186;9.222;2023-09-12T00:20:52;17.17;89.33
75170;SHT31;63749;49.186;9.222;2023-09-12T00:23:18;17.17;89.22
75170;SHT31;63749;49.186;9.222;2023-09-12T00:25:44;17.17;90.00
75170;SHT31;63749;49.186;9.222;2023-09-12T00:28:09;17.14;89.97
75170;SHT31;63749;49.186;9.222;2023-09-12T00:30:34;17.09;89.83
75170;SHT31;63749;49.186;9.222;2023-09-12T00:33:01;17.04;89.85
75170;SHT31;63749;49.186;9.222;2023-09-12T00:35:26;17.00;90.16
75170;SHT31;63749;49.186;9.222;2023-09-12T00:37:51;17.00;90.11
75170;SHT31;63749;49.186;9.222;2023-09-12T00:40:17;16.99;90.10
75170;SHT31;63749;49.186;9.222;2023-09-12T00:42:42;16.94;90.10
75170;SHT31;63749;49.186;9.222;2023-09-12T00:45:08;16.94;90.26
75170;SHT31;63749;49.186;9.222;2023-09-12T00:47:35;16.96;90.25
75170;SHT31;63749;49.186;9.222;2023-09-12T00:50:02;16.96;90.26
75170;SHT31;63749;49.186;9.222;2023-09-12T00:52:31;16.97;90.10
75170;SHT31;63749;49.186;9.222;2023-09-12T00:54:57;16.90;90.03
75170;SHT31;63749;49.186;9.222;2023-09-12T00:57:23;16.86;90.30
75170;SHT31;63749;49.186;9.222;2023-09-12T00:59:49;16.80;90.47
75170;SHT31;63749;49.186;9.222;2023-09-12T01:02:14;16.79;90.57
75170;SHT31;63749;49.186;9.222;2023-09-12T01:04:43;16.72;90.53
75170;SHT31;63749;49.186;9.222;2023-09-12T01:07:09;16.73;90.71
75170;SHT31;63749;49.186;9.222;2023-09-12T01:09:34;16.68;90.75
75170;SHT31;63749;49.186;9.222;2023-09-12T01:12:00;16.66;90.54
75170;SHT31;63749;49.186;9.222;2023-09-12T01:14:29;16.61;90.87
75170;SHT31;63749;49.186;9.222;2023-09-12T01:16:55;16.62;91.21
75170;SHT31;63749;49.186;9.222;2023-09-12T01:19:21;16.59;91.11
75170;SHT31;63749;49.186;9.222;2023-09-12T01:22:15;16.49;91.65
75170;SHT31;63749;49.186;9.222;2023-09-12T01:27:34;16.48;92.01
75170;SHT31;63749;49.186;9.222;2023-09-12T01:30:02;16.51;92.25
75170;SHT31;63749;49.186;9.222;2023-09-12T01:32:31;16.45;92.37
75170;SHT31;63749;49.186;9.222;2023-09-12T01:34:56;16.36;91.70
75170;SHT31;63749;49.186;9.222;2023-09-12T01:37:21;16.31;91.31
75170;SHT31;63749;49.186;9.222;2023-09-12T01:39:47;16.20;91.44
75170;SHT31;63749;49.186;9.222;2023-09-12T01:42:18;16.25;90.77
75170;SHT31;63749;49.186;9.222;2023-09-12T01:44:45;16.14;91.10
75170;SHT31;63749;49.186;9.222;2023-09-12T01:47:12;16.11;91.12
75170;SHT31;63749;49.186;9.222;2023-09-12T01:49:41;16.14;90.74
75170;SHT31;63749;49.186;9.222;2023-09-12T01:52:07;16.13;90.69
75170;SHT31;63749;49.186;9.222;2023-09-12T01:54:34;16.07;90.61
75170;SHT31;63749;49.186;9.222;2023-09-12T01:57:00;16.07;90.61
75170;SHT31;63749;49.186;9.222;2023-09-12T01:59:26;16.00;90.58
75170;SHT31;63749;49.186;9.222;2023-09-12T02:01:51;15.93;90.61
75170;SHT31;63749;49.186;9.222;2023-09-12T02:04:17;15.89;90.81
75170;SHT31;63749;49.186;9.222;2023-09-12T02:06:42;15.84;90.94
75170;SHT31;63749;49.186;9.222;2023-09-12T02:09:07;15.79;90.97
75170;SHT31;63749;49.186;9.222;2023-09-12T02:11:33;15.69;91.28
75170;SHT31;63749;49.186;9.222;2023-09-12T02:13:58;15.67;91.39
75170;SHT31;63749;49.186;9.222;2023-09-12T02:16:23;15.67;91.52
75170;SHT31;63749;49.186;9.222;2023-09-12T02:18:49;15.67;91.62
75170;SHT31;63749;49.186;9.222;2023-09-12T02:21:14;15.63;91.65
75170;SHT31;63749;49.186;9.222;2023-09-12T02:23:41;15.64;91.74
75170;SHT31;63749;49.186;9.222;2023-09-12T02:26:06;15.60;91.81
75170;SHT31;63749;49.186;9.222;2023-09-12T02:28:32;15.54;91.80
75170;SHT31;63749;49.186;9.222;2023-09-12T02:30:57;15.56;91.89
75170;SHT31;63749;49.186;9.222;2023-09-12T02:33:23;15.57;91.65
75170;SHT31;63749;49.186;9.222;2023-09-12T02:35:48;15.60;91.58
75170;SHT31;63749;49.186;9.222;2023-09-12T02:38:14;15.60;91.78
75170;SHT31;63749;49.186;9.222;2023-09-12T02:40:39;15.57;91.91
75170;SHT31;63749;49.186;9.222;2023-09-12T02:43:04;15.62;91.99
75170;SHT31;63749;49.186;9.222;2023-09-12T02:45:30;15.59;91.82
75170;SHT31;63749;49.186;9.222;2023-09-12T02:47:55;15.59;91.84
75170;SHT31;63749;49.186;9.222;2023-09-12T02:50:21;15.74;91.42
75170;SHT31;63749;49.186;9.222;2023-09-12T02:52:46;15.82;91.43
75170;SHT31;63749;49.186;9.222;2023-09-12T02:55:12;15.77;91.20
75170;SHT31;63749;49.186;9.222;2023-09-12T02:57:37;15.76;91.16
75170;SHT31;63749;49.186;9.222;2023-09-12T03:00:03;15.82;90.74
75170;SHT31;63749;49.186;9.222;2023-09-12T03:02:31;15.84;90.42
75170;SHT31;63749;49.186;9.222;2023-09-12T03:04:56;15.83;90.28
75170;SHT31;63749;49.186;9.222;2023-09-12T03:07:22;15.76;90.43
75170;SHT31;63749;49.186;9.222;2023-09-12T03:09:50;15.70;90.57
75170;SHT31;63749;49.186;9.222;2023-09-12T03:12:16;15.64;90.80
75170;SHT31;63749;49.186;9.222;2023-09-12T03:14:41;15.66;90.93
75170;SHT31;63749;49.186;9.222;2023-09-12T03:17:06;15.69;90.83
75170;SHT31;63749;49.186;9.222;2023-09-12T03:19:32;15.67;90.58
75170;SHT31;63749;49.186;9.222;2023-09-12T03:21:57;15.64;90.40
75170;SHT31;63749;49.186;9.222;2023-09-12T03:24:22;15.67;90.51
75170;SHT31;63749;49.186;9.222;2023-09-12T03:26:50;15.60;90.84
75170;SHT31;63749;49.186;9.222;2023-09-12T03:29:16;15.59;90.90
75170;SHT31;63749;49.186;9.222;2023-09-12T03:31:41;15.53;90.99
75170;SHT31;63749;49.186;9.222;2023-09-12T03:34:06;15.57;91.19
75170;SHT31;63749;49.186;9.222;2023-09-12T03:36:32;15.64;90.80
75170;SHT31;63749;49.186;9.222;2023-09-12T03:38:57;15.64;90.76
75170;SHT31;63749;49.186;9.222;2023-09-12T03:41:22;15.59;90.92
75170;SHT31;63749;49.186;9.222;2023-09-12T03:43:53;15.69;90.70
75170;SHT31;63749;49.186;9.222;2023-09-12T03:46:19;15.77;90.46
75170;SHT31;63749;49.186;9.222;2023-09-12T03:48:45;15.76;90.48
75170;SHT31;63749;49.186;9.222;2023-09-12T03:51:11;15.76;90.55
75170;SHT31;63749;49.186;9.222;2023-09-12T03:53:36;15.74;90.70
75170;SHT31;63749;49.186;9.222;2023-09-12T03:56:01;15.80;90.73
75170;SHT31;63749;49.186;9.222;2023-09-12T03:58:27;15.77;90.79
75170;SHT31;63749;49.186;9.222;2023-09-12T04:00:52;15.87;90.41
75170;SHT31;63749;49.186;9.222;2023-09-12T04:03:18;15.87;90.45
75170;SHT31;63749;49.186;9.222;2023-09-12T04:05:43;15.90;90.36
75170;SHT31;63749;49.186;9.222;2023-09-12T04:08:08;15.93;90.26
75170;SHT31;63749;49.186;9.222;2023-09-12T04:10:34;15.93;90.26
75170;SHT31;63749;49.186;9.222;2023-09-12T04:12:59;16.00;90.12
75170;SHT31;63749;49.186;9.222;2023-09-12T04:15:25;16.05;90.04
75170;SHT31;63749;49.186;9.222;2023-09-12T04:17:52;16.10;89.98
75170;SHT31;63749;49.186;9.222;2023-09-12T04:20:18;16.15;89.67
75170;SHT31;63749;49.186;9.222;2023-09-12T04:22:43;16.22;89.49
75170;SHT31;63749;49.186;9.222;2023-09-12T04:25:09;16.24;89.22
75170;SHT31;63749;49.186;9.222;2023-09-12T04:27:34;16.28;89.23
75170;SHT31;63749;49.186;9.222;2023-09-12T04:29:59;16.34;89.01
75170;SHT31;63749;49.186;9.222;2023-09-12T04:32:25;16.36;89.17
75170;SHT31;63749;49.186;9.222;2023-09-12T04:34:50;16.38;89.22
75170;SHT31;63749;49.186;9.222;2023-09-12T04:37:16;16.40;88.96
75170;SHT31;63749;49.186;9.222;2023-09-12T04:39:41;16.41;88.74
75170;SHT31;63749;49.186;9.222;2023-09-12T04:42:07;16.44;88.71
75170;SHT31;63749;49.186;9.222;2023-09-12T04:44:40;16.45;88.73
75170;SHT31;63749;49.186;9.222;2023-09-12T04:47:05;16.44;88.62
75170;SHT31;63749;49.186;9.222;2023-09-12T04:49:31;16.48;88.65
75170;SHT31;63749;49.186;9.222;2023-09-12T04:51:56;16.45;88.44
75170;SHT31;63749;49.186;9.222;2023-09-12T04:54:22;16.48;88.43
75170;SHT31;63749;49.186;9.222;2023-09-12T04:56:47;16.56;88.21
75170;SHT31;63749;49.186;9.222;2023-09-12T04:59:13;16.58;88.22
75170;SHT31;63749;49.186;9.222;2023-09-12T05:01:38;16.99;88.47
75170;SHT31;63749;49.186;9.222;2023-09-12T05:04:03;17.21;87.24
75170;SHT31;63749;49.186;9.222;2023-09-12T05:06:29;17.14;85.93
75170;SHT31;63749;49.186;9.222;2023-09-12T05:08:54;17.58;86.44
75170;SHT31;63749;49.186;9.222;2023-09-12T05:11:22;17.64;85.37
75170;SHT31;63749;49.186;9.222;2023-09-12T05:13:48;17.62;84.44
75170;SHT31;63749;49.186;9.222;2023-09-12T05:16:13;17.54;85.40
75170;SHT31;63749;49.186;9.222;2023-09-12T05:18:40;17.44;84.87
75170;SHT31;63749;49.186;9.222;2023-09-12T05:21:05;17.40;85.00
75170;SHT31;63749;49.186;9.222;2023-09-12T05:23:31;17.40;85.38
75170;SHT31;63749;49.186;9.222;2023-09-12T05:25:56;17.85;84.26
75170;SHT31;63749;49.186;9.222;2023-09-12T05:28:22;17.86;84.41
75170;SHT31;63749;49.186;9.222;2023-09-12T05:30:47;17.74;84.07
75170;SHT31;63749;49.186;9.222;2023-09-12T05:33:13;17.62;84.20
75170;SHT31;63749;49.186;9.222;2023-09-12T05:35:38;17.42;84.43
75170;SHT31;63749;49.186;9.222;2023-09-12T05:38:03;17.44;84.56
75170;SHT31;63749;49.186;9.222;2023-09-12T05:40:29;17.45;84.70
75170;SHT31;63749;49.186;9.222;2023-09-12T05:42:57;17.44;84.57
75170;SHT31;63749;49.186;9.222;2023-09-12T05:45:22;17.50;84.82
75170;SHT31;63749;49.186;9.222;2023-09-12T05:47:48;17.58;84.92
75170;SHT31;63749;49.186;9.222;2023-09-12T05:50:15;17.68;84.47
75170;SHT31;63749;49.186;9.222;2023-09-12T05:52:40;17.78;84.04
75170;SHT31;63749;49.186;9.222;2023-09-12T05:55:08;17.82;83.47
75170;SHT31;63749;49.186;9.222;2023-09-12T05:57:34;17.85;83.47
75170;SHT31;63749;49.186;9.222;2023-09-12T05:59:59;17.93;82.96
75170;SHT31;63749;49.186;9.222;2023-09-12T06:02:25;17.98;82.88
75170;SHT31;63749;49.186;9.222;2023-09-12T06:04:51;18.17;82.54
75170;SHT31;63749;49.186;9.222;2023-09-12T06:07:16;18.23;82.84
75170;SHT31;63749;49.186;9.222;2023-09-12T06:09:41;18.28;82.51
75170;SHT31;63749;49.186;9.222;2023-09-12T06:12:07;18.32;82.73
75170;SHT31;63749;49.186;9.222;2023-09-12T06:14:32;18.39;82.41
75170;SHT31;63749;49.186;9.222;2023-09-12T06:16:58;18.46;82.60
75170;SHT31;63749;49.186;9.222;2023-09-12T06:19:23;18.61;82.51
75170;SHT31;63749;49.186;9.222;2023-09-12T06:21:49;18.75;81.76
75170;SHT31;63749;49.186;9.222;2023-09-12T06:24:16;18.78;81.36
75170;SHT31;63749;49.186;9.222;2023-09-12T06:26:42;18.91;80.47
75170;SHT31;63749;49.186;9.222;2023-09-12T06:29:08;18.98;79.81
75170;SHT31;63749;49.186;9.222;2023-09-12T06:31:34;19.12;79.51
75170;SHT31;63749;49.186;9.222;2023-09-12T06:34:00;19.33;79.12
75170;SHT31;63749;49.186;9.222;2023-09-12T06:36:26;19.43;78.55
75170;SHT31;63749;49.186;9.222;2023-09-12T06:38:52;19.30;78.34
75170;SHT31;63749;49.186;9.222;2023-09-12T06:41:20;19.38;78.26
75170;SHT31;63749;49.186;9.222;2023-09-12T06:43:46;19.46;78.48
75170;SHT31;63749;49.186;9.222;2023-09-12T06:46:11;19.50;78.42
75170;SHT31;63749;49.186;9.222;2023-09-12T06:48:36;19.57;78.12
75170;SHT31;63749;49.186;9.222;2023-09-12T06:51:05;19.74;77.52
75170;SHT31;63749;49.186;9.222;2023-09-12T06:53:30;19.83;77.34
75170;SHT31;63749;49.186;9.222;2023-09-12T06:55:55;19.88;77.20
75170;SHT31;63749;49.186;9.222;2023-09-12T06:58:22;19.97;77.22
75170;SHT31;63749;49.186;9.222;2023-09-12T07:00:48;19.98;77.41
75170;SHT31;63749;49.186;9.222;2023-09-12T07:03:13;20.14;76.49
75170;SHT31;63749;49.186;9.222;2023-09-12T07:05:38;20.14;76.16
75170;SHT31;63749;49.186;9.222;2023-09-12T07:08:05;20.18;76.26
75170;SHT31;63749;49.186;9.222;2023-09-12T07:10:30;20.08;76.39
75170;SHT31;63749;49.186;9.222;2023-09-12T07:12:56;20.18;76.31
75170;SHT31;63749;49.186;9.222;2023-09-12T07:15:21;20.22;76.09
75170;SHT31;63749;49.186;9.222;2023-09-12T07:17:46;20.25;75.82
75170;SHT31;63749;49.186;9.222;2023-09-12T07:20:12;20.27;75.51
75170;SHT31;63749;49.186;9.222;2023-09-12T07:22:39;20.29;75.56
75170;SHT31;63749;49.186;9.222;2023-09-12T07:25:07;20.28;75.87
75170;SHT31;63749;49.186;9.222;2023-09-12T07:27:34;20.25;76.30
75170;SHT31;63749;49.186;9.222;2023-09-12T07:29:59;20.24;76.11
75170;SHT31;63749;49.186;9.222;2023-09-12T07:32:25;20.38;75.89
75170;SHT31;63749;49.186;9.222;2023-09-12T07:34:50;20.42;75.83
75170;SHT31;63749;49.186;9.222;2023-09-12T07:37:15;20.49;75.47
75170;SHT31;63749;49.186;9.222;2023-09-12T07:39:41;20.55;75.65
75170;SHT31;63749;49.186;9.222;2023-09-12T07:42:06;20.66;73.82
75170;SHT31;63749;49.186;9.222;2023-09-12T07:44:31;20.73;74.36
75170;SHT31;63749;49.186;9.222;2023-09-12T07:46:57;20.71;74.66
75170;SHT31;63749;49.186;9.222;2023-09-12T07:49:22;20.86;74.49
75170;SHT31;63749;49.186;9.222;2023-09-12T07:51:51;21.03;74.12
75170;SHT31;63749;49.186;9.222;2023-09-12T07:54:16;21.23;73.24
75170;SHT31;63749;49.186;9.222;2023-09-12T07:56:43;21.40;73.09
75170;SHT31;63749;49.186;9.222;2023-09-12T07:59:08;21.48;72.70
75170;SHT31;63749;49.186;9.222;2023-09-12T08:01:35;21.62;72.11
75170;SHT31;63749;49.186;9.222;2023-09-12T08:04:00;21.58;72.25
75170;SHT31;63749;49.186;9.222;2023-09-12T08:06:25;21.68;72.16
75170;SHT31;63749;49.186;9.222;2023-09-12T08:08:51;21.79;72.00
75170;SHT31;63749;49.186;9.222;2023-09-12T08:11:17;21.88;71.69
75170;SHT31;63749;49.186;9.222;2023-09-12T08:13:42;21.96;71.77
75170;SHT31;63749;49.186;9.222;2023-09-12T08:16:08;22.15;71.87
75170;SHT31;63749;49.186;9.222;2023-09-12T08:18:33;22.23;70.91
75170;SHT31;63749;49.186;9.222;2023-09-12T08:20:58;22.23;70.77
75170;SHT31;63749;49.186;9.222;2023-09-12T08:23:24;22.32;70.24
75170;SHT31;63749;49.186;9.222;2023-09-12T08:25:49;22.44;69.97
75170;SHT31;63749;49.186;9.222;2023-09-12T08:28:15;22.40;69.98
75170;SHT31;63749;49.186;9.222;2023-09-12T08:30:40;22.63;69.69
75170;SHT31;63749;49.186;9.222;2023-09-12T08:33:05;22.83;68.83
75170;SHT31;63749;49.186;9.222;2023-09-12T08:35:32;23.05;68.25
75170;SHT31;63749;49.186;9.222;2023-09-12T08:37:57;23.18;67.91
75170;SHT31;63749;49.186;9.222;2023-09-12T08:40:23;23.38;67.33
75170;SHT31;63749;49.186;9.222;2023-09-12T08:42:50;23.55;67.24
75170;SHT31;63749;49.186;9.222;2023-09-12T08:45:18;23.70;66.91
75170;SHT31;63749;49.186;9.222;2023-09-12T08:47:45;23.79;66.27
75170;SHT31;63749;49.186;9.222;2023-09-12T08:50:12;23.74;66.58
75170;SHT31;63749;49.186;9.222;2023-09-12T08:52:43;23.87;66.12
75170;SHT31;63749;49.186;9.222;2023-09-12T08:55:09;24.07;65.99
75170;SHT31;63749;49.186;9.222;2023-09-12T08:57:37;24.24;65.21
75170;SHT31;63749;49.186;9.222;2023-09-12T09:00:04;24.45;64.28
75170;SHT31;63749;49.186;9.222;2023-09-12T09:02:33;24.65;64.28
75170;SHT31;63749;49.186;9.222;2023-09-12T09:04:59;24.89;63.56
75170;SHT31;63749;49.186;9.222;2023-09-12T09:07:25;25.02;62.56
75170;SHT31;63749;49.186;9.222;2023-09-12T09:09:52;25.10;62.25
75170;SHT31;63749;49.186;9.222;2023-09-12T09:12:19;25.20;61.33
75170;SHT31;63749;49.186;9.222;2023-09-12T09:14:44;25.23;61.11
75170;SHT31;63749;49.186;9.222;2023-09-12T09:17:10;25.27;61.08
75170;SHT31;63749;49.186;9.222;2023-09-12T09:19:45;25.48;60.96
75170;SHT31;63749;49.186;9.222;2023-09-12T09:22:11;25.48;60.57
75170;SHT31;63749;49.186;9.222;2023-09-12T09:24:36;25.54;60.46
75170;SHT31;63749;49.186;9.222;2023-09-12T09:27:02;25.56;60.64
75170;SHT31;63749;49.186;9.222;2023-09-12T09:29:28;25.61;60.93
75170;SHT31;63749;49.186;9.222;2023-09-12T09:32:00;25.77;60.91
75170;SHT31;63749;49.186;9.222;2023-09-12T09:34:26;25.86;60.46
75170;SHT31;63749;49.186;9.222;2023-09-12T09:36:55;26.01;59.96
75170;SHT31;63749;49.186;9.222;2023-09-12T09:39:26;26.14;59.73
75170;SHT31;63749;49.186;9.222;2023-09-12T09:41:53;26.29;60.22
75170;SHT31;63749;49.186;9.222;2023-09-12T09:44:21;26.36;59.35
75170;SHT31;63749;49.186;9.222;2023-09-12T09:46:50;26.43;59.05
75170;SHT31;63749;49.186;9.222;2023-09-12T09:49:19;26.43;58.88
75170;SHT31;63749;49.186;9.222;2023-09-12T09:51:45;26.53;58.66
75170;SHT31;63749;49.186;9.222;2023-09-12T09:54:14;26.53;58.69
75170;SHT31;63749;49.186;9.222;2023-09-12T09:56:47;26.54;58.86
75170;SHT31;63749;49.186;9.222;2023-09-12T09:59:18;26.67;59.20
75170;SHT31;63749;49.186;9.222;2023-09-12T10:01:44;26.90;59.35
75170;SHT31;63749;49.186;9.222;2023-09-12T10:04:10;27.05;57.96
75170;SHT31;63749;49.186;9.222;2023-09-12T10:06:37;27.34;57.45
75170;SHT31;63749;49.186;9.222;2023-09-12T10:09:06;27.41;56.89
75170;SHT31;63749;49.186;9.222;2023-09-12T10:11:33;27.30;56.13
75170;SHT31;63749;49.186;9.222;2023-09-12T10:14:02;27.35;56.55
75170;SHT31;63749;49.186;9.222;2023-09-12T10:16:44;27.41;55.83
75170;SHT31;63749;49.186;9.222;2023-09-12T10:21:46;27.69;55.71
75170;SHT31;63749;49.186;9.222;2023-09-12T10:24:14;27.90;55.60
75170;SHT31;63749;49.186;9.222;2023-09-12T10:26:42;28.04;54.85
75170;SHT31;63749;49.186;9.222;2023-09-12T10:29:12;28.04;54.59
75170;SHT31;63749;49.186;9.222;2023-09-12T10:31:38;28.10;54.79
75170;SHT31;63749;49.186;9.222;2023-09-12T10:34:03;28.16;54.50
75170;SHT31;63749;49.186;9.222;2023-09-12T10:36:32;28.20;54.50
75170;SHT31;63749;49.186;9.222;2023-09-12T10:38:58;28.39;54.06
75170;SHT31;63749;49.186;9.222;2023-09-12T10:41:25;28.41;54.43
75170;SHT31;63749;49.186;9.222;2023-09-12T10:43:52;28.61;54.30
75170;SHT31;63749;49.186;9.222;2023-09-12T10:46:18;28.69;53.26
75170;SHT31;63749;49.186;9.222;2023-09-12T10:48:43;28.83;53.52
75170;SHT31;63749;49.186;9.222;2023-09-12T10:51:10;28.82;52.91
75170;SHT31;63749;49.186;9.222;2023-09-12T10:53:36;28.85;53.40
75170;SHT31;63749;49.186;9.222;2023-09-12T10:56:21;29.09;52.65
75170;SHT31;63749;49.186;9.222;2023-09-12T11:01:39;29.12;52.37
75170;SHT31;63749;49.186;9.222;2023-09-12T11:06:54;29.49;51.68
75170;SHT31;63749;49.186;9.222;2023-09-12T11:09:24;29.64;51.23
75170;SHT31;63749;49.186;9.222;2023-09-12T11:12:03;29.77;51.54
75170;SHT31;63749;49.186;9.222;2023-09-12T11:14:28;30.01;51.83
75170;SHT31;63749;49.186;9.222;2023-09-12T11:20:02;30.29;49.54
75170;SHT31;63749;49.186;9.222;2023-09-12T11:22:34;30.49;48.40
75170;SHT31;63749;49.186;9.222;2023-09-12T11:25:03;30.51;47.18
75170;SHT31;63749;49.186;9.222;2023-09-12T11:27:32;30.55;47.71
75170;SHT31;63749;49.186;9.222;2023-09-12T11:30:05;30.65;47.06
75170;SHT31;63749;49.186;9.222;2023-09-12T11:32:34;30.75;47.76
75170;SHT31;63749;49.186;9.222;2023-09-12T11:35:05;30.86;47.48
75170;SHT31;63749;49.186;9.222;2023-09-12T11:37:31;30.90;47.18
75170;SHT31;63749;49.186;9.222;2023-09-12T11:39:58;31.06;46.73
75170;SHT31;63749;49.186;9.222;2023-09-12T11:42:24;31.21;46.86
75170;SHT31;63749;49.186;9.222;2023-09-12T11:44:51;31.23;46.09
75170;SHT31;63749;49.186;9.222;2023-09-12T11:47:17;31.14;46.28
75170;SHT31;63749;49.186;9.222;2023-09-12T11:49:42;31.33;46.14
75170;SHT31;63749;49.186;9.222;2023-09-12T11:52:15;31.34;45.66
75170;SHT31;63749;49.186;9.222;2023-09-12T11:54:45;31.44;45.72
75170;SHT31;63749;49.186;9.222;2023-09-12T11:57:12;31.39;44.98
75170;SHT31;63749;49.186;9.222;2023-09-12T11:59:39;31.54;45.55
75170;SHT31;63749;49.186;9.222;2023-09-12T12:02:08;31.59;44.65
75170;SHT31;63749;49.186;9.222;2023-09-12T12:04:35;31.61;44.54
75170;SHT31;63749;49.186;9.222;2023-09-12T12:07:01;31.52;45.05
75170;SHT31;63749;49.186;9.222;2023-09-12T12:09:27;31.72;44.47
75170;SHT31;63749;49.186;9.222;2023-09-12T12:11:52;31.89;44.23
75170;SHT31;63749;49.186;9.222;2023-09-12T12:14:17;32.03;43.77
75170;SHT31;63749;49.186;9.222;2023-09-12T12:16:45;31.92;42.63
75170;SHT31;63749;49.186;9.222;2023-09-12T12:19:11;32.01;43.06
75170;SHT31;63749;49.186;9.222;2023-09-12T12:21:40;31.86;43.04
75170;SHT31;63749;49.186;9.222;2023-09-12T12:24:16;31.48;43.93
75170;SHT31;63749;49.186;9.222;2023-09-12T12:26:43;31.17;44.49
75170;SHT31;63749;49.186;9.222;2023-09-12T12:29:09;30.91;44.96
75170;SHT31;63749;49.186;9.222;2023-09-12T12:31:35;30.70;45.04
75170;SHT31;63749;49.186;9.222;2023-09-12T12:34:00;30.52;45.44
75170;SHT31;63749;49.186;9.222;2023-09-12T12:36:26;30.38;45.84
75170;SHT31;63749;49.186;9.222;2023-09-12T12:38:52;30.29;45.54
75170;SHT31;63749;49.186;9.222;2023-09-12T12:41:24;30.24;45.88
75170;SHT31;63749;49.186;9.222;2023-09-12T12:43:50;30.25;45.36
75170;SHT31;63749;49.186;9.222;2023-09-12T12:46:20;30.24;45.39
75170;SHT31;63749;49.186;9.222;2023-09-12T12:48:47;30.28;45.43
75170;SHT31;63749;49.186;9.222;2023-09-12T12:53:44;30.96;44.53
75170;SHT31;63749;49.186;9.222;2023-09-12T12:56:15;32.41;42.10
75170;SHT31;63749;49.186;9.222;2023-09-12T12:58:55;34.24;39.64
75170;SHT31;63749;49.186;9.222;2023-09-12T13:01:22;35.25;37.50
75170;SHT31;63749;49.186;9.222;2023-09-12T13:03:48;36.35;36.05
75170;SHT31;63749;49.186;9.222;2023-09-12T13:06:15;37.45;34.72
75170;SHT31;63749;49.186;9.222;2023-09-12T13:08:43;37.67;33.25
75170;SHT31;63749;49.186;9.222;2023-09-12T13:11:09;38.30;32.87
75170;SHT31;63749;49.186;9.222;2023-09-12T13:13:37;38.39;32.63
75170;SHT31;63749;49.186;9.222;2023-09-12T13:16:04;37.13;32.92
75170;SHT31;63749;49.186;9.222;2023-09-12T13:18:33;36.01;35.12
75170;SHT31;63749;49.186;9.222;2023-09-12T13:20:59;34.76;36.64
75170;SHT31;63749;49.186;9.222;2023-09-12T13:23:24;33.90;37.79
75170;SHT31;63749;49.186;9.222;2023-09-12T13:25:50;33.93;37.83
75170;SHT31;63749;49.186;9.222;2023-09-12T13:28:16;35.33;35.72
75170;SHT31;63749;49.186;9.222;2023-09-12T13:30:42;37.09;33.64
75170;SHT31;63749;49.186;9.222;2023-09-12T13:33:07;37.98;32.42
75170;SHT31;63749;49.186;9.222;2023-09-12T13:35:32;38.63;31.57
75170;SHT31;63749;49.186;9.222;2023-09-12T13:37:58;38.73;31.25
75170;SHT31;63749;49.186;9.222;2023-09-12T13:40:23;39.49;30.82
75170;SHT31;63749;49.186;9.222;2023-09-12T13:42:48;40.20;29.22
75170;SHT31;63749;49.186;9.222;2023-09-12T13:45:14;40.31;29.13
75170;SHT31;63749;49.186;9.222;2023-09-12T13:47:39;40.58;28.13
75170;SHT31;63749;49.186;9.222;2023-09-12T13:50:05;40.11;28.50
75170;SHT31;63749;49.186;9.222;2023-09-12T13:52:30;40.01;28.85
75170;SHT31;63749;49.186;9.222;2023-09-12T13:54:56;40.71;27.72
75170;SHT31;63749;49.186;9.222;2023-09-12T13:57:21;40.26;28.69
75170;SHT31;63749;49.186;9.222;2023-09-12T13:59:46;40.67;28.72
75170;SHT31;63749;49.186;9.222;2023-09-12T14:02:12;41.40;27.09
75170;SHT31;63749;49.186;9.222;2023-09-12T14:04:37;41.35;26.61
75170;SHT31;63749;49.186;9.222;2023-09-12T14:07:03;41.23;26.72
75170;SHT31;63749;49.186;9.222;2023-09-12T14:09:28;41.08;27.05
75170;SHT31;63749;49.186;9.222;2023-09-12T14:11:54;40.07;29.38
75170;SHT31;63749;49.186;9.222;2023-09-12T14:14:19;39.42;28.53
75170;SHT31;63749;49.186;9.222;2023-09-12T14:16:46;40.38;27.69
75170;SHT31;63749;49.186;9.222;2023-09-12T14:19:11;40.72;26.86
75170;SHT31;63749;49.186;9.222;2023-09-12T14:21:37;40.77;27.22
75170;SHT31;63749;49.186;9.222;2023-09-12T14:24:02;41.33;26.95
75170;SHT31;63749;49.186;9.222;2023-09-12T14:26:28;41.33;26.80
75170;SHT31;63749;49.186;9.222;2023-09-12T14:28:53;41.87;26.22
75170;SHT31;63749;49.186;9.222;2023-09-12T14:31:20;41.30;26.95
75170;SHT31;63749;49.186;9.222;2023-09-12T14:33:47;41.94;25.74
75170;SHT31;63749;49.186;9.222;2023-09-12T14:36:13;40.61;26.68
75170;SHT31;63749;49.186;9.222;2023-09-12T14:38:38;41.32;26.10
75170;SHT31;63749;49.186;9.222;2023-09-12T14:41:03;41.00;25.97
75170;SHT31;63749;49.186;9.222;2023-09-12T14:43:29;41.74;25.03
75170;SHT31;63749;49.186;9.222;2023-09-12T14:45:54;41.39;24.95
75170;SHT31;63749;49.186;9.222;2023-09-12T14:48:20;40.36;26.49
75170;SHT31;63749;49.186;9.222;2023-09-12T14:50:45;40.55;26.13
75170;SHT31;63749;49.186;9.222;2023-09-12T14:53:14;41.15;25.28
75170;SHT31;63749;49.186;9.222;2023-09-12T14:55:40;41.32;25.00
75170;SHT31;63749;49.186;9.222;2023-09-12T14:58:05;40.89;25.70
75170;SHT31;63749;49.186;9.222;2023-09-12T15:00:30;39.43;26.22
75170;SHT31;63749;49.186;9.222;2023-09-12T15:02:57;37.92;29.88
75170;SHT31;63749;49.186;9.222;2023-09-12T15:05:23;37.23;28.74
75170;SHT31;63749;49.186;9.222;2023-09-12T15:07:48;38.70;27.27
75170;SHT31;63749;49.186;9.222;2023-09-12T15:10:14;39.79;26.49
75170;SHT31;63749;49.186;9.222;2023-09-12T15:12:39;41.00;25.30
75170;SHT31;63749;49.186;9.222;2023-09-12T15:15:05;41.43;24.63
75170;SHT31;63749;49.186;9.222;2023-09-12T15:17:32;41.08;25.22
75170;SHT31;63749;49.186;9.222;2023-09-12T15:19:57;40.75;25.24
75170;SHT31;63749;49.186;9.222;2023-09-12T15:22:22;41.30;25.29
75170;SHT31;63749;49.186;9.222;2023-09-12T15:24:47;41.37;24.81
75170;SHT31;63749;49.186;9.222;2023-09-12T15:27:13;41.42;25.09
75170;SHT31;63749;49.186;9.222;2023-09-12T15:29:38;41.98;24.36
75170;SHT31;63749;49.186;9.222;2023-09-12T15:32:04;42.14;24.15
75170;SHT31;63749;49.186;9.222;2023-09-12T15:34:31;41.87;24.58
75170;SHT31;63749;49.186;9.222;2023-09-12T15:37:12;41.52;24.94
75170;SHT31;63749;49.186;9.222;2023-09-12T15:39:38;40.71;26.64
75170;SHT31;63749;49.186;9.222;2023-09-12T15:42:05;41.18;25.63